sensor_id;sensor_type;location;lat;lon;timestamp;pressure;altitude;pressure_sealevel;temperature;humidity
37170;BME280;23062;13.952;100.608;2023-09-08T00:03:52;1009.11;;;31.26;67.78
37170;BME280;23062;13.952;100.608;2023-09-08T00:08:29;1009.12;;;31.33;67.57
37170;BME280;23062;13.952;100.608;2023-09-08T00:13:10;1009.17;;;31.32;67.28
37170;BME280;23062;13.952;100.608;2023-09-08T00:17:54;1009.24;;;31.38;67.20
37170;BME280;23062;13.952;100.608;2023-09-08T00:22:40;1009.31;;;31.42;66.98
37170;BME280;23062;13.952;100.608;2023-09-08T00:27:20;1009.36;;;31.39;67.07
37170;BME280;23062;13.952;100.608;2023-09-08T00:32:04;1009.50;;;31.43;66.59
37170;BME280;23062;13.952;100.608;2023-09-08T00:36:41;1009.61;;;31.44;66.27
37170;BME280;23062;13.952;100.608;2023-09-08T00:41:25;1009.68;;;31.44;66.02
37170;BME280;23062;13.952;100.608;2023-09-08T00:46:11;1009.76;;;31.46;65.74
37170;BME280;23062;13.952;100.608;2023-09-08T00:50:57;1009.83;;;31.47;65.90
37170;BME280;23062;13.952;100.608;2023-09-08T00:55:40;1009.93;;;31.50;65.76
37170;BME280;23062;13.952;100.608;2023-09-08T01:00:18;1010.00;;;31.54;65.81
37170;BME280;23062;13.952;100.608;2023-09-08T01:05:01;1010.05;;;31.54;65.71
37170;BME280;23062;13.952;100.608;2023-09-08T01:09:38;1010.13;;;31.57;65.89
37170;BME280;23062;13.952;100.608;2023-09-08T01:14:25;1010.21;;;31.61;65.22
37170;BME280;23062;13.952;100.608;2023-09-08T01:19:03;1010.20;;;31.63;64.97
37170;BME280;23062;13.952;100.608;2023-09-08T01:28:36;1010.33;;;31.67;64.71
37170;BME280;23062;13.952;100.608;2023-09-08T01:33:34;1010.38;;;31.72;64.73
37170;BME280;23062;13.952;100.608;2023-09-08T01:38:20;1010.41;;;31.74;64.60
37170;BME280;23062;13.952;100.608;2023-09-08T01:43:05;1010.48;;;31.75;64.36
37170;BME280;23062;13.952;100.608;2023-09-08T01:47:50;1010.50;;;31.74;64.49
37170;BME280;23062;13.952;100.608;2023-09-08T01:52:33;1010.48;;;31.82;64.48
37170;BME280;23062;13.952;100.608;2023-09-08T01:57:14;1010.49;;;31.84;63.95
37170;BME280;23062;13.952;100.608;2023-09-08T02:01:57;1010.47;;;31.83;64.01
37170;BME280;23062;13.952;100.608;2023-09-08T02:06:42;1010.45;;;31.82;63.77
37170;BME280;23062;13.952;100.608;2023-09-08T02:11:20;1010.46;;;31.85;63.43
37170;BME280;23062;13.952;100.608;2023-09-08T02:16:05;1010.47;;;31.87;63.35
37170;BME280;23062;13.952;100.608;2023-09-08T02:20:51;1010.47;;;31.86;63.31
37170;BME280;23062;13.952;100.608;2023-09-08T02:25:34;1010.41;;;31.91;63.07
37170;BME280;23062;13.952;100.608;2023-09-08T02:30:18;1010.38;;;31.95;62.93
37170;BME280;23062;13.952;100.608;2023-09-08T02:35:03;1010.38;;;31.95;62.40
37170;BME280;23062;13.952;100.608;2023-09-08T02:39:47;1010.40;;;31.96;62.99
37170;BME280;23062;13.952;100.608;2023-09-08T02:44:32;1010.38;;;31.97;63.11
37170;BME280;23062;13.952;100.608;2023-09-08T02:49:18;1010.36;;;31.97;64.67
37170;BME280;23062;13.952;100.608;2023-09-08T02:53:57;1010.35;;;31.97;63.77
37170;BME280;23062;13.952;100.608;2023-09-08T02:58:44;1010.35;;;31.93;64.21
37170;BME280;23062;13.952;100.608;2023-09-08T03:03:28;1010.34;;;31.94;64.76
37170;BME280;23062;13.952;100.608;2023-09-08T03:08:13;1010.32;;;31.93;64.19
37170;BME280;23062;13.952;100.608;2023-09-08T03:12:56;1010.29;;;31.94;64.46
37170;BME280;23062;13.952;100.608;2023-09-08T03:17:38;1010.29;;;31.95;64.27
37170;BME280;23062;13.952;100.608;2023-09-08T03:22:21;1010.20;;;32.00;64.24
37170;BME280;23062;13.952;100.608;2023-09-08T03:27:05;1010.17;;;32.08;63.55
37170;BME280;23062;13.952;100.608;2023-09-08T03:31:41;1010.19;;;32.15;63.60
37170;BME280;23062;13.952;100.608;2023-09-08T03:36:18;1010.16;;;32.20;63.21
37170;BME280;23062;13.952;100.608;2023-09-08T03:41:01;1010.17;;;32.26;62.98
37170;BME280;23062;13.952;100.608;2023-09-08T03:47:19;1010.11;;;32.30;62.50
37170;BME280;23062;13.952;100.608;2023-09-08T03:52:02;1010.10;;;32.31;62.26
37170;BME280;23062;13.952;100.608;2023-09-08T03:56:41;1010.08;;;32.35;61.81
37170;BME280;23062;13.952;100.608;2023-09-08T04:01:18;1010.13;;;32.39;61.33
37170;BME280;23062;13.952;100.608;2023-09-08T04:05:59;1010.08;;;32.40;61.65
37170;BME280;23062;13.952;100.608;2023-09-08T04:11:22;1009.95;;;32.43;61.23
37170;BME280;23062;13.952;100.608;2023-09-08T04:16:34;1009.93;;;32.56;60.75
37170;BME280;23062;13.952;100.608;2023-09-08T04:21:15;1009.90;;;32.50;61.10
37170;BME280;23062;13.952;100.608;2023-09-08T04:26:02;1009.84;;;32.48;61.55
37170;BME280;23062;13.952;100.608;2023-09-08T04:30:45;1009.81;;;32.52;60.93
37170;BME280;23062;13.952;100.608;2023-09-08T04:35:30;1009.76;;;32.52;60.84
37170;BME280;23062;13.952;100.608;2023-09-08T04:40:13;1009.69;;;32.46;61.09
37170;BME280;23062;13.952;100.608;2023-09-08T04:44:51;1009.57;;;32.50;60.95
37170;BME280;23062;13.952;100.608;2023-09-08T04:49:38;1009.51;;;32.55;60.44
37170;BME280;23062;13.952;100.608;2023-09-08T04:54:22;1009.32;;;32.52;60.62
37170;BME280;23062;13.952;100.608;2023-09-08T05:00:16;1009.24;;;32.55;60.63
37170;BME280;23062;13.952;100.608;2023-09-08T05:04:52;1009.11;;;32.54;60.46
37170;BME280;23062;13.952;100.608;2023-09-08T05:09:35;1008.96;;;32.56;60.43
37170;BME280;23062;13.952;100.608;2023-09-08T05:14:12;1008.86;;;32.58;60.30
37170;BME280;23062;13.952;100.608;2023-09-08T05:18:55;1008.77;;;32.58;60.10
37170;BME280;23062;13.952;100.608;2023-09-08T05:23:31;1008.63;;;32.57;60.02
37170;BME280;23062;13.952;100.608;2023-09-08T05:28:16;1008.59;;;32.64;59.37
37170;BME280;23062;13.952;100.608;2023-09-08T05:32:58;1008.46;;;32.65;59.44
37170;BME280;23062;13.952;100.608;2023-09-08T05:37:42;1008.38;;;32.67;59.25
37170;BME280;23062;13.952;100.608;2023-09-08T05:42:24;1008.20;;;32.66;59.40
37170;BME280;23062;13.952;100.608;2023-09-08T05:47:02;1008.07;;;32.73;59.08
37170;BME280;23062;13.952;100.608;2023-09-08T05:51:51;1007.95;;;32.72;59.03
37170;BME280;23062;13.952;100.608;2023-09-08T05:56:38;1007.76;;;32.74;59.15
37170;BME280;23062;13.952;100.608;2023-09-08T06:01:22;1007.63;;;32.79;58.62
37170;BME280;23062;13.952;100.608;2023-09-08T06:06:05;1007.53;;;32.83;58.29
37170;BME280;23062;13.952;100.608;2023-09-08T06:10:48;1007.42;;;32.83;58.41
37170;BME280;23062;13.952;100.608;2023-09-08T06:15:32;1007.29;;;32.88;58.23
37170;BME280;23062;13.952;100.608;2023-09-08T06:20:14;1007.19;;;32.93;58.02
37170;BME280;23062;13.952;100.608;2023-09-08T06:25:00;1007.13;;;32.98;57.70
37170;BME280;23062;13.952;100.608;2023-09-08T06:29:44;1007.01;;;32.93;57.67
37170;BME280;23062;13.952;100.608;2023-09-08T06:34:24;1006.82;;;32.97;57.69
37170;BME280;23062;13.952;100.608;2023-09-08T06:39:09;1006.79;;;32.99;57.55
37170;BME280;23062;13.952;100.608;2023-09-08T06:43:52;1006.64;;;33.01;57.41
37170;BME280;23062;13.952;100.608;2023-09-08T06:48:31;1006.51;;;33.15;56.85
37170;BME280;23062;13.952;100.608;2023-09-08T06:53:08;1006.39;;;33.15;56.52
37170;BME280;23062;13.952;100.608;2023-09-08T06:57:53;1006.29;;;33.13;56.57
37170;BME280;23062;13.952;100.608;2023-09-08T07:02:38;1006.21;;;33.11;56.88
37170;BME280;23062;13.952;100.608;2023-09-08T07:07:17;1006.13;;;33.10;56.71
37170;BME280;23062;13.952;100.608;2023-09-08T07:12:03;1005.98;;;33.19;55.84
37170;BME280;23062;13.952;100.608;2023-09-08T07:16:40;1005.89;;;33.18;56.35
37170;BME280;23062;13.952;100.608;2023-09-08T07:21:25;1005.76;;;33.18;56.19
37170;BME280;23062;13.952;100.608;2023-09-08T07:26:10;1005.72;;;33.16;56.29
37170;BME280;23062;13.952;100.608;2023-09-08T07:30:47;1005.61;;;33.25;56.08
37170;BME280;23062;13.952;100.608;2023-09-08T07:35:31;1005.57;;;33.17;56.95
37170;BME280;23062;13.952;100.608;2023-09-08T07:40:10;1005.45;;;33.21;57.11
37170;BME280;23062;13.952;100.608;2023-09-08T07:44:55;1005.47;;;33.24;56.59
37170;BME280;23062;13.952;100.608;2023-09-08T07:49:33;1005.34;;;33.31;56.19
37170;BME280;23062;13.952;100.608;2023-09-08T07:54:11;1005.30;;;33.27;56.17
37170;BME280;23062;13.952;100.608;2023-09-08T07:58:56;1005.27;;;33.24;56.54
37170;BME280;23062;13.952;100.608;2023-09-08T08:03:33;1005.25;;;33.26;56.44
37170;BME280;23062;13.952;100.608;2023-09-08T08:08:21;1005.26;;;33.27;56.45
37170;BME280;23062;13.952;100.608;2023-09-08T08:13:05;1005.30;;;33.30;56.14
37170;BME280;23062;13.952;100.608;2023-09-08T08:17:51;1005.28;;;33.32;56.08
37170;BME280;23062;13.952;100.608;2023-09-08T08:22:36;1005.31;;;33.27;56.43
37170;BME280;23062;13.952;100.608;2023-09-08T08:27:13;1005.26;;;33.25;56.71
37170;BME280;23062;13.952;100.608;2023-09-08T08:31:50;1005.30;;;33.26;56.73
37170;BME280;23062;13.952;100.608;2023-09-08T08:36:37;1005.28;;;33.30;56.57
37170;BME280;23062;13.952;100.608;2023-09-08T08:41:13;1005.23;;;33.30;56.41
37170;BME280;23062;13.952;100.608;2023-09-08T08:45:59;1005.18;;;33.28;56.14
37170;BME280;23062;13.952;100.608;2023-09-08T08:50:43;1005.14;;;33.28;56.32
37170;BME280;23062;13.952;100.608;2023-09-08T08:55:29;1005.13;;;33.27;56.05
37170;BME280;23062;13.952;100.608;2023-09-08T09:00:13;1005.12;;;33.26;55.80
37170;BME280;23062;13.952;100.608;2023-09-08T09:04:58;1005.14;;;33.27;55.71
37170;BME280;23062;13.952;100.608;2023-09-08T09:09:49;1005.15;;;33.24;55.82
37170;BME280;23062;13.952;100.608;2023-09-08T09:14:36;1005.14;;;33.23;55.89
37170;BME280;23062;13.952;100.608;2023-09-08T09:19:20;1005.23;;;33.23;55.94
37170;BME280;23062;13.952;100.608;2023-09-08T09:24:06;1005.20;;;33.23;55.89
37170;BME280;23062;13.952;100.608;2023-09-08T09:28:49;1005.22;;;33.23;56.04
37170;BME280;23062;13.952;100.608;2023-09-08T09:33:35;1005.25;;;33.22;56.92
37170;BME280;23062;13.952;100.608;2023-09-08T09:38:13;1005.24;;;33.19;58.83
37170;BME280;23062;13.952;100.608;2023-09-08T09:42:52;1005.27;;;33.19;59.14
37170;BME280;23062;13.952;100.608;2023-09-08T09:47:38;1005.30;;;33.18;58.89
37170;BME280;23062;13.952;100.608;2023-09-08T09:52:24;1005.30;;;33.16;59.00
37170;BME280;23062;13.952;100.608;2023-09-08T09:57:15;1005.31;;;33.18;58.41
37170;BME280;23062;13.952;100.608;2023-09-08T10:02:00;1005.31;;;33.20;57.71
37170;BME280;23062;13.952;100.608;2023-09-08T10:06:45;1005.35;;;33.15;57.74
37170;BME280;23062;13.952;100.608;2023-09-08T10:11:29;1005.35;;;33.15;57.76
37170;BME280;23062;13.952;100.608;2023-09-08T10:16:09;1005.29;;;33.12;58.00
37170;BME280;23062;13.952;100.608;2023-09-08T10:20:56;1005.44;;;33.15;57.92
37170;BME280;23062;13.952;100.608;2023-09-08T10:25:41;1005.39;;;33.15;57.15
37170;BME280;23062;13.952;100.608;2023-09-08T10:30:24;1005.44;;;33.16;56.81
37170;BME280;23062;13.952;100.608;2023-09-08T10:35:05;1005.45;;;33.14;56.12
37170;BME280;23062;13.952;100.608;2023-09-08T10:39:51;1005.49;;;33.14;56.22
37170;BME280;23062;13.952;100.608;2023-09-08T10:44:35;1005.48;;;33.13;55.89
37170;BME280;23062;13.952;100.608;2023-09-08T10:49:18;1005.56;;;33.14;55.66
37170;BME280;23062;13.952;100.608;2023-09-08T10:54:05;1005.62;;;33.17;55.32
37170;BME280;23062;13.952;100.608;2023-09-08T10:58:51;1005.62;;;33.17;55.36
37170;BME280;23062;13.952;100.608;2023-09-08T11:08:19;1005.55;;;33.10;55.39
37170;BME280;23062;13.952;100.608;2023-09-08T11:13:01;1005.57;;;33.10;55.37
37170;BME280;23062;13.952;100.608;2023-09-08T11:17:46;1005.66;;;33.08;55.39
37170;BME280;23062;13.952;100.608;2023-09-08T11:22:31;1005.64;;;33.07;55.49
37170;BME280;23062;13.952;100.608;2023-09-08T11:27:15;1005.64;;;33.06;55.76
37170;BME280;23062;13.952;100.608;2023-09-08T11:32:00;1005.56;;;33.07;55.72
37170;BME280;23062;13.952;100.608;2023-09-08T11:36:48;1005.65;;;33.07;55.91
37170;BME280;23062;13.952;100.608;2023-09-08T11:41:30;1005.66;;;33.06;56.15
37170;BME280;23062;13.952;100.608;2023-09-08T11:46:15;1005.61;;;33.06;56.34
37170;BME280;23062;13.952;100.608;2023-09-08T11:50:59;1005.66;;;33.06;56.51
37170;BME280;23062;13.952;100.608;2023-09-08T11:55:45;1005.65;;;33.05;56.62
37170;BME280;23062;13.952;100.608;2023-09-08T12:00:24;1005.80;;;33.06;56.82
37170;BME280;23062;13.952;100.608;2023-09-08T12:05:02;1005.79;;;33.07;56.97
37170;BME280;23062;13.952;100.608;2023-09-08T12:09:47;1005.98;;;33.02;57.19
37170;BME280;23062;13.952;100.608;2023-09-08T12:14:29;1006.05;;;33.02;57.17
37170;BME280;23062;13.952;100.608;2023-09-08T12:19:34;1006.07;;;32.98;56.90
37170;BME280;23062;13.952;100.608;2023-09-08T12:29:25;1006.30;;;32.95;57.15
37170;BME280;23062;13.952;100.608;2023-09-08T12:34:03;1006.53;;;32.96;57.02
37170;BME280;23062;13.952;100.608;2023-09-08T12:38:47;1006.59;;;32.95;57.18
37170;BME280;23062;13.952;100.608;2023-09-08T12:43:32;1006.59;;;32.94;57.22
37170;BME280;23062;13.952;100.608;2023-09-08T12:48:20;1006.55;;;32.94;57.32
37170;BME280;23062;13.952;100.608;2023-09-08T12:53:03;1006.57;;;32.92;57.19
37170;BME280;23062;13.952;100.608;2023-09-08T12:57:48;1006.68;;;32.91;57.14
37170;BME280;23062;13.952;100.608;2023-09-08T13:02:36;1006.75;;;32.91;56.87
37170;BME280;23062;13.952;100.608;2023-09-08T13:07:24;1006.81;;;32.90;57.07
37170;BME280;23062;13.952;100.608;2023-09-08T13:12:07;1006.93;;;32.91;57.18
37170;BME280;23062;13.952;100.608;2023-09-08T13:16:58;1006.94;;;32.94;57.18
37170;BME280;23062;13.952;100.608;2023-09-08T13:22:14;1007.12;;;32.95;57.17
37170;BME280;23062;13.952;100.608;2023-09-08T13:27:01;1007.22;;;32.92;57.23
37170;BME280;23062;13.952;100.608;2023-09-08T13:31:51;1007.45;;;32.91;57.25
37170;BME280;23062;13.952;100.608;2023-09-08T13:36:38;1007.70;;;32.98;57.19
37170;BME280;23062;13.952;100.608;2023-09-08T13:41:23;1007.83;;;32.96;56.77
37170;BME280;23062;13.952;100.608;2023-09-08T13:46:10;1007.93;;;32.96;56.59
37170;BME280;23062;13.952;100.608;2023-09-08T13:51:03;1008.01;;;32.94;56.71
37170;BME280;23062;13.952;100.608;2023-09-08T13:55:52;1008.09;;;32.93;56.73
37170;BME280;23062;13.952;100.608;2023-09-08T14:00:38;1008.10;;;32.93;56.62
37170;BME280;23062;13.952;100.608;2023-09-08T14:05:26;1008.08;;;32.92;56.70
37170;BME280;23062;13.952;100.608;2023-09-08T14:10:07;1008.08;;;32.92;56.76
37170;BME280;23062;13.952;100.608;2023-09-08T14:14:48;1008.23;;;32.91;56.78
37170;BME280;23062;13.952;100.608;2023-09-08T14:19:36;1008.30;;;32.90;56.80
37170;BME280;23062;13.952;100.608;2023-09-08T14:24:25;1008.39;;;32.90;56.89
37170;BME280;23062;13.952;100.608;2023-09-08T14:29:11;1008.45;;;32.90;56.69
37170;BME280;23062;13.952;100.608;2023-09-08T14:33:51;1008.38;;;32.89;56.58
37170;BME280;23062;13.952;100.608;2023-09-08T14:38:35;1008.39;;;32.88;56.59
37170;BME280;23062;13.952;100.608;2023-09-08T14:43:16;1008.40;;;32.86;56.52
37170;BME280;23062;13.952;100.608;2023-09-08T14:47:55;1008.47;;;32.86;56.51
37170;BME280;23062;13.952;100.608;2023-09-08T14:52:43;1008.49;;;32.84;56.72
37170;BME280;23062;13.952;100.608;2023-09-08T14:57:29;1008.54;;;32.86;56.85
37170;BME280;23062;13.952;100.608;2023-09-08T15:02:10;1008.50;;;32.83;56.79
37170;BME280;23062;13.952;100.608;2023-09-08T15:06:56;1008.47;;;32.82;56.75
37170;BME280;23062;13.952;100.608;2023-09-08T15:11:42;1008.46;;;32.81;56.67
37170;BME280;23062;13.952;100.608;2023-09-08T15:16:28;1008.52;;;32.80;56.53
37170;BME280;23062;13.952;100.608;2023-09-08T15:21:13;1008.53;;;32.79;56.47
37170;BME280;23062;13.952;100.608;2023-09-08T15:25:57;1008.57;;;32.78;56.38
37170;BME280;23062;13.952;100.608;2023-09-08T15:30:51;1008.63;;;32.77;56.35
37170;BME280;23062;13.952;100.608;2023-09-08T15:35:35;1008.69;;;32.75;56.33
37170;BME280;23062;13.952;100.608;2023-09-08T15:40:20;1008.70;;;32.77;56.24
37170;BME280;23062;13.952;100.608;2023-09-08T15:45:05;1008.70;;;32.76;56.50
37170;BME280;23062;13.952;100.608;2023-09-08T15:49:51;1008.73;;;32.73;56.18
37170;BME280;23062;13.952;100.608;2023-09-08T15:54:35;1008.73;;;32.73;56.50
37170;BME280;23062;13.952;100.608;2023-09-08T15:59:20;1008.74;;;32.73;56.56
37170;BME280;23062;13.952;100.608;2023-09-08T16:03:56;1008.66;;;32.75;56.84
37170;BME280;23062;13.952;100.608;2023-09-08T16:08:38;1008.67;;;32.74;56.81
37170;BME280;23062;13.952;100.608;2023-09-08T16:13:23;1008.66;;;32.73;57.20
37170;BME280;23062;13.952;100.608;2023-09-08T16:18:05;1008.68;;;32.75;57.60
37170;BME280;23062;13.952;100.608;2023-09-08T16:22:50;1008.73;;;32.74;57.89
37170;BME280;23062;13.952;100.608;2023-09-08T16:27:28;1008.67;;;32.75;58.26
37170;BME280;23062;13.952;100.608;2023-09-08T16:32:15;1008.66;;;32.73;58.39
37170;BME280;23062;13.952;100.608;2023-09-08T16:36:56;1008.71;;;32.75;58.70
37170;BME280;23062;13.952;100.608;2023-09-08T16:41:39;1008.70;;;32.73;58.77
37170;BME280;23062;13.952;100.608;2023-09-08T16:46:15;1008.66;;;32.73;58.81
37170;BME280;23062;13.952;100.608;2023-09-08T16:50:59;1008.62;;;32.70;58.50
37170;BME280;23062;13.952;100.608;2023-09-08T16:55:43;1008.67;;;32.70;58.11
37170;BME280;23062;13.952;100.608;2023-09-08T17:00:29;1008.56;;;32.70;57.87
37170;BME280;23062;13.952;100.608;2023-09-08T17:05:10;1008.53;;;32.68;57.53
37170;BME280;23062;13.952;100.608;2023-09-08T17:09:58;1008.52;;;32.67;57.51
37170;BME280;23062;13.952;100.608;2023-09-08T17:14:42;1008.43;;;32.66;57.13
37170;BME280;23062;13.952;100.608;2023-09-08T17:19:21;1008.45;;;32.65;57.13
37170;BME280;23062;13.952;100.608;2023-09-08T17:23:58;1008.38;;;32.63;57.00
37170;BME280;23062;13.952;100.608;2023-09-08T17:28:35;1008.31;;;32.61;56.89
37170;BME280;23062;13.952;100.608;2023-09-08T17:33:19;1008.35;;;32.63;57.20
37170;BME280;23062;13.952;100.608;2023-09-08T17:37:57;1008.44;;;32.62;56.97
37170;BME280;23062;13.952;100.608;2023-09-08T17:42:33;1008.40;;;32.63;57.12
37170;BME280;23062;13.952;100.608;2023-09-08T17:47:16;1008.34;;;32.61;57.13
37170;BME280;23062;13.952;100.608;2023-09-08T17:51:53;1008.36;;;32.59;56.94
37170;BME280;23062;13.952;100.608;2023-09-08T17:56:37;1008.25;;;32.61;56.96
37170;BME280;23062;13.952;100.608;2023-09-08T18:01:22;1008.17;;;32.56;56.98
37170;BME280;23062;13.952;100.608;2023-09-08T18:06:04;1008.14;;;32.56;56.87
37170;BME280;23062;13.952;100.608;2023-09-08T18:10:48;1008.05;;;32.55;56.95
37170;BME280;23062;13.952;100.608;2023-09-08T18:15:32;1007.96;;;32.54;57.00
37170;BME280;23062;13.952;100.608;2023-09-08T18:20:10;1007.86;;;32.55;57.10
37170;BME280;23062;13.952;100.608;2023-09-08T18:24:54;1007.75;;;32.53;56.86
37170;BME280;23062;13.952;100.608;2023-09-08T18:29:40;1007.67;;;32.53;56.82
37170;BME280;23062;13.952;100.608;2023-09-08T18:34:25;1007.63;;;32.51;56.79
37170;BME280;23062;13.952;100.608;2023-09-08T18:39:03;1007.48;;;32.51;56.67
37170;BME280;23062;13.952;100.608;2023-09-08T18:43:50;1007.38;;;32.50;56.70
37170;BME280;23062;13.952;100.608;2023-09-08T18:48:34;1007.25;;;32.49;56.61
37170;BME280;23062;13.952;100.608;2023-09-08T18:53:19;1007.15;;;32.51;56.69
37170;BME280;23062;13.952;100.608;2023-09-08T18:58:00;1007.10;;;32.48;56.68
37170;BME280;23062;13.952;100.608;2023-09-08T19:02:42;1007.04;;;32.48;56.69
37170;BME280;23062;13.952;100.608;2023-09-08T19:07:19;1006.97;;;32.46;56.77
37170;BME280;23062;13.952;100.608;2023-09-08T19:11:56;1006.92;;;32.47;56.61
37170;BME280;23062;13.952;100.608;2023-09-08T19:16:33;1006.91;;;32.46;56.65
37170;BME280;23062;13.952;100.608;2023-09-08T19:21:17;1006.86;;;32.44;56.74
37170;BME280;23062;13.952;100.608;2023-09-08T19:26:08;1006.84;;;32.46;56.71
37170;BME280;23062;13.952;100.608;2023-09-08T19:30:54;1006.83;;;32.44;56.73
37170;BME280;23062;13.952;100.608;2023-09-08T19:35:38;1006.86;;;32.43;56.71
37170;BME280;23062;13.952;100.608;2023-09-08T19:40:24;1006.85;;;32.44;56.73
37170;BME280;23062;13.952;100.608;2023-09-08T19:45:03;1006.76;;;32.45;56.59
37170;BME280;23062;13.952;100.608;2023-09-08T19:49:46;1006.68;;;32.43;56.64
37170;BME280;23062;13.952;100.608;2023-09-08T19:54:23;1006.66;;;32.43;56.58
37170;BME280;23062;13.952;100.608;2023-09-08T19:59:10;1006.58;;;32.39;56.54
37170;BME280;23062;13.952;100.608;2023-09-08T20:03:56;1006.50;;;32.41;56.65
37170;BME280;23062;13.952;100.608;2023-09-08T20:08:40;1006.52;;;32.41;56.60
37170;BME280;23062;13.952;100.608;2023-09-08T20:13:25;1006.54;;;32.40;56.53
37170;BME280;23062;13.952;100.608;2023-09-08T20:18:08;1006.54;;;32.39;56.62
37170;BME280;23062;13.952;100.608;2023-09-08T20:22:51;1006.60;;;32.39;56.63
37170;BME280;23062;13.952;100.608;2023-09-08T20:27:36;1006.61;;;32.37;56.58
37170;BME280;23062;13.952;100.608;2023-09-08T20:32:19;1006.54;;;32.39;56.75
37170;BME280;23062;13.952;100.608;2023-09-08T20:37:03;1006.49;;;32.36;56.75
37170;BME280;23062;13.952;100.608;2023-09-08T20:41:48;1006.53;;;32.34;56.77
37170;BME280;23062;13.952;100.608;2023-09-08T20:46:29;1006.55;;;32.36;56.80
37170;BME280;23062;13.952;100.608;2023-09-08T20:51:14;1006.53;;;32.36;56.81
37170;BME280;23062;13.952;100.608;2023-09-08T20:56:00;1006.48;;;32.36;56.94
37170;BME280;23062;13.952;100.608;2023-09-08T21:00:44;1006.45;;;32.34;56.81
37170;BME280;23062;13.952;100.608;2023-09-08T21:05:26;1006.39;;;32.34;56.83
37170;BME280;23062;13.952;100.608;2023-09-08T21:10:05;1006.37;;;32.34;56.79
37170;BME280;23062;13.952;100.608;2023-09-08T21:14:49;1006.34;;;32.33;56.70
37170;BME280;23062;13.952;100.608;2023-09-08T21:19:34;1006.33;;;32.33;56.82
37170;BME280;23062;13.952;100.608;2023-09-08T21:24:19;1006.26;;;32.30;56.91
37170;BME280;23062;13.952;100.608;2023-09-08T21:28:57;1006.21;;;32.31;56.96
37170;BME280;23062;13.952;100.608;2023-09-08T21:33:41;1006.14;;;32.29;57.04
37170;BME280;23062;13.952;100.608;2023-09-08T21:38:27;1006.12;;;32.29;57.15
37170;BME280;23062;13.952;100.608;2023-09-08T21:43:11;1006.13;;;32.27;57.12
37170;BME280;23062;13.952;100.608;2023-09-08T21:47:55;1006.15;;;32.26;57.26
37170;BME280;23062;13.952;100.608;2023-09-08T21:52:40;1006.18;;;32.25;57.29
37170;BME280;23062;13.952;100.608;2023-09-08T21:57:25;1006.14;;;32.24;57.24
37170;BME280;23062;13.952;100.608;2023-09-08T22:02:08;1006.08;;;32.25;57.17
37170;BME280;23062;13.952;100.608;2023-09-08T22:06:50;1005.98;;;32.24;57.19
37170;BME280;23062;13.952;100.608;2023-09-08T22:11:36;1006.02;;;32.23;57.92
37170;BME280;23062;13.952;100.608;2023-09-08T22:16:19;1006.06;;;32.22;58.25
37170;BME280;23062;13.952;100.608;2023-09-08T22:20:59;1006.01;;;32.22;58.32
37170;BME280;23062;13.952;100.608;2023-09-08T22:25:45;1006.04;;;32.22;58.17
37170;BME280;23062;13.952;100.608;2023-09-08T22:30:28;1006.07;;;32.21;58.12
37170;BME280;23062;13.952;100.608;2023-09-08T22:35:07;1006.09;;;32.18;58.14
37170;BME280;23062;13.952;100.608;2023-09-08T22:39:51;1006.19;;;32.20;58.13
37170;BME280;23062;13.952;100.608;2023-09-08T22:44:34;1006.26;;;32.19;58.18
37170;BME280;23062;13.952;100.608;2023-09-08T22:49:19;1006.30;;;32.19;58.20
37170;BME280;23062;13.952;100.608;2023-09-08T22:54:02;1006.32;;;32.21;58.23
37170;BME280;23062;13.952;100.608;2023-09-08T22:58:47;1006.36;;;32.18;58.38
37170;BME280;23062;13.952;100.608;2023-09-08T23:03:29;1006.43;;;32.20;58.41
37170;BME280;23062;13.952;100.608;2023-09-08T23:08:15;1006.41;;;32.16;58.48
37170;BME280;23062;13.952;100.608;2023-09-08T23:12:59;1006.51;;;32.17;58.63
37170;BME280;23062;13.952;100.608;2023-09-08T23:17:47;1006.48;;;32.14;58.72
37170;BME280;23062;13.952;100.608;2023-09-08T23:22:26;1006.53;;;32.15;58.58
37170;BME280;23062;13.952;100.608;2023-09-08T23:27:04;1006.60;;;32.08;58.69
37170;BME280;23062;13.952;100.608;2023-09-08T23:31:40;1006.68;;;32.03;58.74
37170;BME280;23062;13.952;100.608;2023-09-08T23:36:26;1006.80;;;32.01;58.83
37170;BME280;23062;13.952;100.608;2023-09-08T23:41:10;1006.83;;;31.96;58.94
37170;BME280;23062;13.952;100.608;2023-09-08T23:45:46;1006.90;;;31.96;59.27
37170;BME280;23062;13.952;100.608;2023-09-08T23:50:56;1006.96;;;31.89;59.12
37170;BME280;23062;13.952;100.608;2023-09-08T23:55:40;1007.04;;;31.85;59.23
